createdAt,value
2019-02-02T00:01:37.793Z,983.98
2019-02-02T00:06:37.450Z,984.15
2019-02-02T00:11:36.762Z,984.13
2019-02-02T00:16:36.555Z,984.03
2019-02-02T00:21:36.459Z,983.98
2019-02-02T00:26:35.701Z,984.03
2019-02-02T00:31:34.822Z,984.10
2019-02-02T00:36:33.909Z,984.08
2019-02-02T00:41:32.892Z,984.00
2019-02-02T00:46:32.537Z,984.10
2019-02-02T00:51:31.836Z,984.10
2019-02-02T00:56:31.586Z,984.12
2019-02-02T01:01:30.830Z,984.16
2019-02-02T01:06:30.502Z,984.04
2019-02-02T01:11:30.520Z,984.07
2019-02-02T01:16:31.567Z,983.94
2019-02-02T01:21:30.520Z,984.00
2019-02-02T01:26:30.519Z,984.07
2019-02-02T01:31:30.512Z,984.20
2019-02-02T01:36:30.556Z,984.12
2019-02-02T01:41:30.503Z,984.09
2019-02-02T01:46:31.636Z,984.25
2019-02-02T01:51:30.500Z,984.15
2019-02-02T01:56:30.516Z,984.23
2019-02-02T02:01:29.617Z,984.26
2019-02-02T02:06:29.544Z,984.09
2019-02-02T02:11:30.698Z,984.18
2019-02-02T02:16:30.579Z,984.15
2019-02-02T02:21:29.853Z,984.20
2019-02-02T02:26:29.620Z,984.12
2019-02-02T02:31:28.542Z,984.18
2019-02-02T02:36:28.569Z,984.04
2019-02-02T02:41:28.582Z,984.06
2019-02-02T02:46:28.552Z,984.04
2019-02-02T02:51:28.558Z,984.15
2019-02-02T02:56:28.573Z,984.23
2019-02-02T03:01:27.829Z,984.27
2019-02-02T03:06:28.580Z,984.33
2019-02-02T03:11:28.618Z,984.33
2019-02-02T03:16:28.608Z,984.38
2019-02-02T03:21:29.589Z,984.46
2019-02-02T03:26:29.613Z,984.51
2019-02-02T03:31:29.694Z,984.64
2019-02-02T03:36:29.606Z,984.77
2019-02-02T03:41:29.054Z,984.82
2019-02-02T03:46:27.838Z,984.97
2019-02-02T03:51:28.585Z,984.92
2019-02-02T03:56:29.755Z,985.04
2019-02-02T04:01:30.609Z,985.05
2019-02-02T04:06:31.631Z,985.02
2019-02-02T04:11:30.702Z,985.07
2019-02-02T04:16:29.681Z,985.15
2019-02-02T04:21:29.627Z,985.23
2019-02-02T04:26:28.647Z,985.30
2019-02-02T04:31:27.787Z,985.27
2019-02-02T04:36:27.644Z,985.27
2019-02-02T04:41:26.662Z,985.30
2019-02-02T04:46:25.857Z,985.22
2019-02-02T04:51:25.640Z,985.22
2019-02-02T04:56:26.627Z,985.20
2019-02-02T05:01:26.056Z,985.25
2019-02-02T05:06:24.638Z,985.27
2019-02-02T05:11:24.886Z,985.35
2019-02-02T05:16:25.711Z,985.30
2019-02-02T05:21:24.640Z,985.25
2019-02-02T05:26:25.863Z,985.30
2019-02-02T05:31:24.876Z,985.45
2019-02-02T05:36:25.091Z,985.48
2019-02-02T05:41:24.661Z,985.50
2019-02-02T05:46:23.727Z,985.61
2019-02-02T05:51:23.863Z,985.56
2019-02-02T05:56:23.728Z,985.61
2019-02-02T06:01:23.703Z,985.68
2019-02-02T06:06:23.791Z,985.76
2019-02-02T06:11:23.734Z,985.70
2019-02-02T06:16:23.733Z,985.81
2019-02-02T06:21:22.701Z,985.76
2019-02-02T06:26:23.737Z,985.78
2019-02-02T06:31:23.750Z,985.73
2019-02-02T06:36:23.746Z,985.65
2019-02-02T06:41:23.735Z,985.65
2019-02-02T06:46:23.944Z,985.80
2019-02-02T06:51:23.795Z,985.75
2019-02-02T06:56:22.904Z,985.88
2019-02-02T07:01:22.830Z,985.88
2019-02-02T07:06:22.221Z,986.02
2019-02-02T07:11:22.789Z,986.03
2019-02-02T07:16:21.742Z,986.25
2019-02-02T07:21:21.826Z,986.35
2019-02-02T07:26:21.848Z,986.38
2019-02-02T07:31:20.940Z,986.45
2019-02-02T07:36:20.197Z,986.40
2019-02-02T07:41:20.865Z,986.48
2019-02-02T07:46:20.801Z,986.55
2019-02-02T07:51:20.877Z,986.63
2019-02-02T07:56:20.874Z,986.63
2019-02-02T08:01:21.683Z,986.68
2019-02-02T08:06:21.661Z,986.65
2019-02-02T08:11:20.693Z,986.68
2019-02-02T08:16:20.720Z,986.83
2019-02-02T08:21:19.744Z,986.83
2019-02-02T08:26:19.028Z,986.91
2019-02-02T08:31:18.743Z,986.98
2019-02-02T08:36:17.760Z,987.11
2019-02-02T08:41:17.924Z,987.32
2019-02-02T08:46:17.810Z,987.37
2019-02-02T08:51:16.908Z,987.34
2019-02-02T08:56:16.717Z,987.39
2019-02-02T09:01:15.655Z,987.42
2019-02-02T09:06:15.738Z,987.49
2019-02-02T09:11:15.225Z,987.64
2019-02-02T09:16:14.958Z,987.78
2019-02-02T09:21:15.066Z,987.84
2019-02-02T09:26:15.334Z,987.94
2019-02-02T09:31:15.831Z,987.99
2019-02-02T09:36:16.519Z,987.96
2019-02-02T09:41:13.799Z,988.06
2019-02-02T09:46:12.819Z,988.01
2019-02-02T09:51:11.736Z,988.12
2019-02-02T10:06:09.125Z,988.38
2019-02-02T10:11:08.927Z,988.40
2019-02-02T10:16:08.711Z,988.48
2019-02-02T10:21:07.968Z,988.64
2019-02-02T10:26:06.718Z,988.64
2019-02-02T10:31:06.721Z,988.61
2019-02-02T10:36:05.706Z,988.68
2019-02-02T10:41:05.912Z,988.66
2019-02-02T10:46:05.763Z,988.63
2019-02-02T10:51:06.757Z,988.79
2019-02-02T10:56:06.121Z,988.76
2019-02-02T11:01:05.739Z,988.79
2019-02-02T11:06:05.764Z,988.79
2019-02-02T11:11:05.822Z,988.86
2019-02-02T11:16:08.285Z,988.97
2019-02-02T11:21:04.903Z,988.91
2019-02-02T11:26:04.836Z,989.07
2019-02-02T11:31:04.834Z,989.09
2019-02-02T11:36:03.771Z,989.15
2019-02-02T11:41:03.791Z,989.28
2019-02-02T11:46:04.955Z,989.30
2019-02-02T11:51:05.226Z,989.41
2019-02-02T11:56:04.795Z,989.43
2019-02-02T12:01:03.739Z,989.62
2019-02-02T12:06:03.803Z,989.65
2019-02-02T12:11:03.975Z,989.70
2019-02-02T12:16:03.771Z,989.65
2019-02-02T12:21:03.745Z,989.75
2019-02-02T12:26:02.835Z,989.80
2019-02-02T12:31:01.949Z,989.83
2019-02-02T12:36:00.920Z,989.91
2019-02-02T12:41:00.820Z,989.99
2019-02-02T12:46:00.764Z,990.11
2019-02-02T12:51:01.828Z,990.32
2019-02-02T12:56:01.056Z,990.45
2019-02-02T13:01:01.842Z,990.50
2019-02-02T13:06:00.837Z,990.53
2019-02-02T13:11:00.862Z,990.55
2019-02-02T13:16:00.863Z,990.55
2019-02-02T13:21:01.883Z,990.58
2019-02-02T13:26:05.524Z,990.71
2019-02-02T13:31:01.112Z,990.76
2019-02-02T13:36:01.061Z,990.81
2019-02-02T13:41:00.870Z,990.81
2019-02-02T13:46:00.942Z,990.94
2019-02-02T13:51:00.850Z,991.05
2019-02-02T13:55:59.844Z,991.12
2019-02-02T14:00:58.848Z,991.19
2019-02-02T14:05:58.324Z,991.19
2019-02-02T14:10:58.885Z,991.34
2019-02-02T14:15:58.469Z,991.39
2019-02-02T14:20:58.886Z,991.47
2019-02-02T14:25:58.148Z,991.60
2019-02-02T14:30:57.859Z,991.70
2019-02-02T14:35:58.154Z,991.86
2019-02-02T14:40:57.908Z,991.78
2019-02-02T14:45:56.828Z,991.99
2019-02-02T14:50:55.999Z,991.91
2019-02-02T15:00:56.886Z,992.22
2019-02-02T15:05:56.345Z,992.30
2019-02-02T15:10:55.891Z,992.35
2019-02-02T15:15:54.949Z,992.45
2019-02-02T15:20:54.518Z,992.56
2019-02-02T15:25:54.878Z,992.53
2019-02-02T15:30:53.887Z,992.63
2019-02-02T15:35:54.003Z,992.88
2019-02-02T15:40:59.076Z,992.95
2019-02-02T15:45:52.962Z,992.98
2019-02-02T15:50:52.924Z,993.16
2019-02-02T15:55:53.944Z,993.29
2019-02-02T16:00:53.967Z,993.32
2019-02-02T16:05:53.299Z,993.45
2019-02-02T16:10:52.134Z,993.57
2019-02-02T16:15:52.098Z,993.50
2019-02-02T16:20:51.943Z,993.60
2019-02-02T16:25:52.989Z,993.75
2019-02-02T16:30:52.006Z,994.01
2019-02-02T16:35:50.998Z,994.06
2019-02-02T16:40:50.996Z,994.19
2019-02-02T16:45:50.100Z,994.27
2019-02-02T16:50:49.201Z,994.48
2019-02-02T16:55:48.318Z,994.40
2019-02-02T17:00:48.034Z,994.50
2019-02-02T17:05:47.977Z,994.74
2019-02-02T17:10:48.008Z,994.90
2019-02-02T17:15:47.026Z,994.92
2019-02-02T17:20:47.010Z,995.05
2019-02-02T17:25:47.206Z,995.23
2019-02-02T17:30:46.991Z,995.31
2019-02-02T17:35:47.194Z,995.33
2019-02-02T17:40:46.115Z,995.41
2019-02-02T17:45:45.246Z,995.62
2019-02-02T17:50:44.418Z,995.72
2019-02-02T17:55:44.511Z,995.85
2019-02-02T18:00:45.239Z,995.95
2019-02-02T18:05:46.028Z,996.09
2019-02-02T18:10:47.066Z,996.14
2019-02-02T18:15:46.040Z,996.29
2019-02-02T18:20:45.389Z,996.35
2019-02-02T18:25:45.034Z,996.42
2019-02-02T18:30:46.057Z,996.45
2019-02-02T18:35:46.057Z,996.63
2019-02-02T18:40:47.239Z,996.73
2019-02-02T18:45:47.134Z,996.83
2019-02-02T18:50:48.063Z,996.91
2019-02-02T18:55:48.124Z,996.81
2019-02-02T19:00:49.187Z,996.86
2019-02-02T19:05:49.064Z,997.09
2019-02-02T19:10:49.092Z,997.12
2019-02-02T19:15:48.232Z,997.04
2019-02-02T19:20:49.092Z,997.27
2019-02-02T19:25:49.254Z,997.30
2019-02-02T19:30:48.131Z,997.37
2019-02-02T19:35:47.100Z,997.45
2019-02-02T19:40:46.608Z,997.48
2019-02-02T19:45:46.178Z,997.67
2019-02-02T19:50:45.253Z,997.77
2019-02-02T19:55:44.229Z,997.92
2019-02-02T20:00:43.152Z,998.10
2019-02-02T20:05:42.147Z,998.18
2019-02-02T20:10:42.160Z,998.28
2019-02-02T20:15:43.106Z,998.44
2019-02-02T20:20:43.172Z,998.52
2019-02-02T20:25:43.182Z,998.59
2019-02-02T20:30:42.447Z,998.75
2019-02-02T20:35:43.163Z,998.85
2019-02-02T20:40:43.192Z,998.93
2019-02-02T20:45:43.141Z,999.06
2019-02-02T20:50:43.157Z,999.16
2019-02-02T20:55:43.153Z,999.26
2019-02-02T21:00:43.136Z,999.45
2019-02-02T21:05:51.876Z,999.53
2019-02-02T21:10:44.396Z,999.73
2019-02-02T21:15:41.281Z,999.91
2019-02-02T21:20:41.450Z,999.91
2019-02-02T21:25:41.241Z,999.99
2019-02-02T21:30:41.204Z,1000.04
2019-02-02T21:35:40.578Z,1000.02
2019-02-02T21:40:41.230Z,1000.15
2019-02-02T21:45:40.569Z,1000.12
2019-02-02T21:50:40.345Z,1000.25
2019-02-02T21:55:40.200Z,1000.33
2019-02-02T22:00:40.328Z,1000.53
2019-02-02T22:05:39.202Z,1000.61
2019-02-02T22:10:38.281Z,1000.66
2019-02-02T22:15:38.247Z,1000.71
2019-02-02T22:20:37.385Z,1000.74
2019-02-02T22:25:36.478Z,1000.81
2019-02-02T22:30:37.242Z,1000.86
2019-02-02T22:35:37.340Z,1000.94
2019-02-02T22:40:38.263Z,1001.10
2019-02-02T22:45:37.281Z,1001.26
2019-02-02T22:50:36.237Z,1001.34
2019-02-02T22:55:36.343Z,1001.52
2019-02-02T23:00:36.267Z,1001.65
2019-02-02T23:05:35.286Z,1001.83
2019-02-02T23:10:35.257Z,1001.85
2019-02-02T23:15:35.275Z,1001.98
2019-02-02T23:20:35.264Z,1002.08
2019-02-02T23:25:34.788Z,1002.13
2019-02-02T23:30:34.242Z,1002.21
2019-02-02T23:35:34.283Z,1002.26
2019-02-02T23:40:34.308Z,1002.24
2019-02-02T23:45:33.318Z,1002.29
2019-02-02T23:50:32.680Z,1002.42
2019-02-02T23:55:33.322Z,1002.47
